Time;durP1;ratioP1;P1;durP2;ratioP2;P2;SDS_P1;SDS_P2;PMS_P1;PMS_P2;Temp;Humidity;BMP_temperature;BMP_pressure;BME280_temperature;BME280_humidity;BME280_pressure;Samples;Min_cycle;Max_cycle;Signal;HPM_P1;HPM_P2
2021/10/20 00:02:22;;;;;;;;;75.67;59.33;;;;;3.62;100.00;100613.53;6283041;20;2878558;-41
2021/10/20 00:04:52;;;;;;;;;76.00;58.67;;;;;3.69;100.00;100612.53;6315966;20;3631529;-40
2021/10/20 00:07:21;;;;;;;;;75.67;58.00;;;;;3.98;100.00;100611.09;6317059;20;3638753;-41
2021/10/20 00:09:51;;;;;;;;;71.67;57.67;;;;;3.96;100.00;100603.13;6314975;20;3626290;-41
2021/10/20 00:12:21;;;;;;;;;72.33;53.67;;;;;4.01;100.00;100599.53;6314705;20;3624185;-41
2021/10/20 00:14:51;;;;;;;;;76.67;58.67;;;;;3.99;100.00;100599.53;6315994;20;3635651;-42
2021/10/20 00:17:21;;;;;;;;;69.00;54.33;;;;;4.07;100.00;100600.25;6316837;20;2874312;-41
2021/10/20 00:19:56;;;;;;;;;74.33;56.67;;;;;4.08;100.00;100601.13;6316865;20;3647117;-42
2021/10/20 00:22:25;;;;;;;;;75.33;56.67;;;;;3.99;100.00;100590.72;6314409;20;3648145;-41
2021/10/20 00:24:55;;;;;;;;;72.33;55.67;;;;;4.15;100.00;100592.13;6316198;20;2872147;-40
2021/10/20 00:27:26;;;;;;;;;76.33;56.67;;;;;4.00;100.00;100593.31;6316830;20;3635701;-41
2021/10/20 00:29:56;;;;;;;;;73.00;56.67;;;;;4.18;100.00;100592.94;6313735;20;3637725;-41
2021/10/20 00:32:25;;;;;;;;;78.00;56.00;;;;;4.18;100.00;100592.94;6313982;20;2775274;-41
2021/10/20 00:34:54;;;;;;;;;74.00;58.33;;;;;3.72;100.00;100598.31;6284126;20;3635722;-42
2021/10/20 00:37:24;;;;;;;;;76.00;58.33;;;;;3.86;100.00;100598.03;6314129;20;2867012;-41
2021/10/20 00:39:53;;;;;;;;;72.00;57.67;;;;;3.53;100.00;100597.78;6314437;20;3627417;-41
2021/10/20 00:42:23;;;;;;;;;72.67;56.00;;;;;3.58;100.00;100601.22;6315983;20;3631544;-42
2021/10/20 00:44:58;;;;;;;;;77.00;57.67;;;;;3.87;100.00;100597.13;6315848;20;2894677;-41
2021/10/20 00:47:28;;;;;;;;;78.00;59.67;;;;;3.89;100.00;100584.69;6314478;20;3637710;-41
2021/10/20 00:49:58;;;;;;;;;73.67;57.67;;;;;3.96;100.00;100581.00;6316019;20;2870101;-41
2021/10/20 00:52:28;;;;;;;;;64.67;53.67;;;;;3.67;100.00;100585.09;6313488;20;2862765;-41
2021/10/20 00:54:58;;;;;;;;;74.33;57.67;;;;;3.70;100.00;100584.19;6314757;20;3634588;-40
2021/10/20 00:57:31;;;;;;;;;77.00;59.67;;;;;3.56;100.00;100586.22;6312096;20;3633556;-40
2021/10/20 01:00:05;;;;;;;;;67.50;53.50;;;;;3.96;100.00;100576.56;6311409;20;2861694;-40
2021/10/20 01:02:37;;;;;;;;;72.67;56.00;;;;;3.64;100.00;100581.66;6285374;20;3644127;-41
2021/10/20 01:05:09;;;;;;;;;60.00;47.00;;;;;3.35;100.00;100582.19;6313653;20;2871071;-40
2021/10/20 01:07:39;;;;;;;;;78.00;56.00;;;;;3.15;100.00;100582.50;6282796;20;3649322;-41
2021/10/20 01:10:11;;;;;;;;;85.67;65.00;;;;;3.24;100.00;100577.06;6311709;20;3643095;-42
2021/10/20 01:12:41;;;;;;;;;80.67;60.33;;;;;3.21;100.00;100583.28;6311630;20;3646510;-41
2021/10/20 01:15:17;;;;;;;;;78.00;62.00;;;;;3.26;100.00;100578.75;6314376;20;3631467;-40
2021/10/20 01:17:49;;;;;;;;;83.00;63.00;;;;;3.26;100.00;100578.75;6315315;20;3657505;-41
2021/10/20 01:20:24;;;;;;;;;81.33;61.67;;;;;3.04;100.00;100577.38;6312028;20;3648134;-41
2021/10/20 01:22:54;;;;;;;;;77.00;60.33;;;;;3.15;100.00;100578.06;6314298;20;3636694;-41
2021/10/20 01:25:24;;;;;;;;;84.00;61.33;;;;;3.02;100.00;100569.44;6312034;20;3645119;-41
2021/10/20 01:27:53;;;;;;;;;77.00;59.00;;;;;3.04;100.00;100572.06;6309122;20;3628761;-41
2021/10/20 01:30:23;;;;;;;;;73.33;58.67;;;;;3.02;100.00;100563.25;6315084;20;2870176;-43
2021/10/20 01:32:53;;;;;;;;;79.00;61.00;;;;;3.13;100.00;100560.44;6314114;20;3632580;-41
2021/10/20 01:35:22;;;;;;;;;73.67;58.00;;;;;3.00;100.00;100559.75;6314125;20;3628438;-40
2021/10/20 01:37:52;;;;;;;;;77.00;61.33;;;;;3.31;100.00;100565.41;6312944;20;3632513;-40
2021/10/20 01:40:21;;;;;;;;;73.67;55.00;;;;;3.37;100.00;100560.00;6315332;20;3641879;-42
2021/10/20 01:42:51;;;;;;;;;74.00;58.67;;;;;3.47;100.00;100561.56;6313183;20;2876535;-43
2021/10/20 01:45:22;;;;;;;;;74.33;57.33;;;;;2.89;100.00;100559.06;6310587;20;3638811;-41
2021/10/20 01:47:51;;;;;;;;;71.67;54.00;;;;;2.84;100.00;100557.38;6313274;20;2889977;-40
2021/10/20 01:50:21;;;;;;;;;68.00;54.33;;;;;2.89;100.00;100556.41;6312710;20;2885782;-41
2021/10/20 01:52:51;;;;;;;;;77.00;54.67;;;;;2.70;100.00;100554.03;6312084;20;3632519;-40
2021/10/20 01:55:20;;;;;;;;;70.00;52.33;;;;;2.52;100.00;100552.53;6314930;20;3642900;-42
2021/10/20 01:57:49;;;;;;;;;67.50;52.50;;;;;2.26;100.00;100559.97;6313725;20;2863992;-40
2021/10/20 02:00:18;;;;;;;;;68.00;51.50;;;;;2.44;100.00;100554.44;6281300;20;2867033;-41
2021/10/20 02:02:48;;;;;;;;;65.33;48.67;;;;;2.50;100.00;100556.09;6280946;20;2868083;-40
2021/10/20 02:05:17;;;;;;;;;61.00;49.00;;;;;2.72;100.00;100560.22;6313902;20;2852391;-41
2021/10/20 02:07:46;;;;;;;;;55.50;47.50;;;;;2.74;100.00;100561.06;6279887;20;2849250;-40
2021/10/20 02:10:16;;;;;;;;;61.00;47.50;;;;;2.90;100.00;100564.34;6282023;20;2850280;-40
2021/10/20 02:12:45;;;;;;;;;58.33;44.33;;;;;2.83;100.00;100562.69;6278932;20;2872200;-40
2021/10/20 02:15:15;;;;;;;;;60.33;46.00;;;;;3.35;100.00;100560.94;6310354;20;2872464;-40
2021/10/20 02:17:45;;;;;;;;;58.33;46.00;;;;;3.57;100.00;100556.97;6311488;20;2869030;-41
2021/10/20 02:20:15;;;;;;;;;58.00;46.00;;;;;2.80;100.00;100553.00;6313816;20;2574240;-41
2021/10/20 02:22:45;;;;;;;;;65.00;49.00;;;;;2.91;100.00;100557.25;6281328;20;2877336;-43
2021/10/20 02:25:15;;;;;;;;;58.67;42.67;;;;;2.90;100.00;100550.19;6281634;20;2879549;-41
2021/10/20 02:27:43;;;;;;;;;62.00;49.00;;;;;3.07;100.00;100551.66;6311198;20;2869035;-41
2021/10/20 02:30:13;;;;;;;;;65.33;47.33;;;;;3.42;100.00;100551.94;6281392;20;2880688;-42
2021/10/20 02:32:43;;;;;;;;;59.33;46.33;;;;;3.22;100.00;100547.00;6312396;20;2874379;-42
2021/10/20 02:35:12;;;;;;;;;61.00;50.00;;;;;3.12;100.00;100533.03;6310766;20;2853510;-40
2021/10/20 02:37:41;;;;;;;;;59.00;46.50;;;;;3.06;100.00;100536.66;6281365;20;2854394;-41
2021/10/20 02:40:12;;;;;;;;;63.00;47.00;;;;;3.15;100.00;100522.34;6281345;20;2880514;-40
2021/10/20 02:42:42;;;;;;;;;65.50;48.50;;;;;3.15;100.00;100530.31;6311081;20;2864850;-42
2021/10/20 02:45:15;;;;;;;;;71.00;50.00;;;;;2.97;100.00;100512.94;6282305;20;3652322;-41
2021/10/20 02:47:46;;;;;;;;;67.33;51.33;;;;;2.99;100.00;100507.59;6309788;20;2872208;-42
2021/10/20 02:50:15;;;;;;;;;61.00;49.00;;;;;3.27;100.00;100508.88;6309211;20;2500287;-41
2021/10/20 02:52:44;;;;;;;;;73.00;53.00;;;;;3.28;100.00;100518.56;6279448;20;3629524;-40
2021/10/20 02:55:14;;;;;;;;;65.00;52.33;;;;;3.18;100.00;100518.75;6312800;20;2866934;-41
2021/10/20 02:57:43;;;;;;;;;66.00;49.67;;;;;3.18;100.00;100524.06;6309867;20;3615232;-42
2021/10/20 03:00:14;;;;;;;;;64.33;52.33;;;;;3.01;100.00;100527.03;6312222;20;2867991;-41
2021/10/20 03:02:44;;;;;;;;;66.00;49.33;;;;;3.00;100.00;100517.31;6310715;20;2861765;-40
2021/10/20 03:05:13;;;;;;;;;64.50;53.50;;;;;2.94;100.00;100514.78;6311941;20;2875247;-42
2021/10/20 03:07:48;;;;;;;;;67.67;54.00;;;;;3.40;100.00;100522.78;6281152;20;2868029;-40
2021/10/20 03:10:18;;;;;;;;;56.00;46.00;;;;;3.20;100.00;100520.50;6313001;20;2847147;-41
2021/10/20 03:12:47;;;;;;;;;59.33;46.00;;;;;3.00;100.00;100502.28;6282100;20;3600266;-43
2021/10/20 03:15:16;;;;;;;;;59.00;46.50;;;;;2.84;100.00;100507.00;6281254;20;2848240;-41
2021/10/20 03:17:44;;;;;;;;;65.50;48.00;;;;;2.91;100.00;100504.22;6280329;20;2878425;-42
2021/10/20 03:20:13;;;;;;;;;52.50;40.00;;;;;2.96;100.00;100502.38;6283736;20;2858643;-40
2021/10/20 03:22:44;;;;;;;;;59.50;49.00;;;;;2.96;100.00;100500.59;6284958;20;2854418;-41
2021/10/20 03:25:14;;;;;;;;;66.00;50.00;;;;;3.18;100.00;100500.19;6284076;20;2864858;-41
2021/10/20 03:27:47;;;;;;;;;71.33;55.33;;;;;3.07;100.00;100501.25;6282719;20;2891003;-41
2021/10/20 03:30:20;;;;;;;;;65.00;51.33;;;;;3.35;100.00;100498.13;6315784;20;2875340;-40
2021/10/20 03:32:51;;;;;;;;;68.33;54.33;;;;;3.51;100.00;100515.50;6317595;20;3620066;-41
2021/10/20 03:35:20;;;;;;;;;77.00;56.33;;;;;3.73;100.00;100523.03;6315023;20;3638772;-42
2021/10/20 03:37:49;;;;;;;;;63.50;51.00;;;;;3.68;100.00;100523.13;6314527;20;2859664;-41
2021/10/20 03:40:19;;;;;;;;;63.67;50.67;;;;;3.72;100.00;100522.16;6285705;20;2866004;-40
2021/10/20 03:42:54;;;;;;;;;59.00;44.00;;;;;3.32;100.00;100518.50;6315915;20;2879618;-42
2021/10/20 03:45:23;;;;;;;;;66.50;50.00;;;;;3.33;100.00;100514.97;6314084;20;2871065;-40
2021/10/20 03:47:52;;;;;;;;;60.00;44.67;;;;;3.42;100.00;100514.78;6286250;20;3617011;-40
2021/10/20 03:50:21;;;;;;;;;53.00;43.50;;;;;3.37;100.00;100504.28;6314484;20;2852338;-41
2021/10/20 03:52:49;;;;;;;;;54.00;40.00;;;;;3.55;100.00;100499.50;6281652;20;2473209;-40
2021/10/20 03:55:19;;;;;;;;;65.50;44.50;;;;;3.57;100.00;100503.88;6283570;20;2875270;-41
2021/10/20 03:57:49;;;;;;;;;62.00;45.33;;;;;3.37;100.00;100506.03;6285000;20;2876529;-40
2021/10/20 04:00:19;;;;;;;;;58.67;43.33;;;;;3.47;100.00;100502.28;6314274;20;2872160;-41
2021/10/20 04:02:48;;;;;;;;;56.00;41.00;;;;;3.74;100.00;100499.09;6312960;20;2869061;-40
2021/10/20 04:05:19;;;;;;;;;67.00;51.00;;;;;3.86;100.00;100505.06;6316006;20;2877369;-40
2021/10/20 04:07:51;;;;;;;;;63.00;48.33;;;;;3.81;100.00;100493.66;6283964;20;2864822;-41
2021/10/20 04:10:28;;;;;;;;;75.67;54.67;;;;;3.90;100.00;100489.03;6318146;20;3636689;-41
2021/10/20 04:12:57;;;;;;;;;68.33;54.00;;;;;4.18;100.00;100491.94;6315991;20;3615969;-41
2021/10/20 04:15:27;;;;;;;;;73.00;55.00;;;;;4.13;100.00;100492.97;6313963;20;3646136;-41
2021/10/20 04:17:56;;;;;;;;;65.00;49.50;;;;;3.88;100.00;100501.47;6313422;20;2871237;-41
2021/10/20 04:20:25;;;;;;;;;56.00;44.00;;;;;4.19;100.00;100508.78;6283215;20;2863851;-43
2021/10/20 04:22:55;;;;;;;;;66.67;51.00;;;;;4.18;100.00;100507.88;6283920;20;2881572;-41
2021/10/20 04:25:24;;;;;;;;;69.33;52.67;;;;;3.91;100.00;100492.56;6315094;20;3617948;-41
2021/10/20 04:27:53;;;;;;;;;62.50;51.50;;;;;4.10;100.00;100483.28;6315440;20;2859628;-43
2021/10/20 04:30:24;;;;;;;;;67.00;53.33;;;;;4.16;100.00;100472.53;6282635;20;2876292;-41
2021/10/20 04:32:53;;;;;;;;;70.33;57.00;;;;;4.13;100.00;100475.25;6314885;20;2871135;-40
2021/10/20 04:35:24;;;;;;;;;76.67;58.00;;;;;4.28;100.00;100475.81;6313449;20;3625236;-41
2021/10/20 04:37:54;;;;;;;;;78.00;55.33;;;;;4.34;100.00;100486.28;6315444;20;3656579;-40
2021/10/20 04:40:24;;;;;;;;;79.00;55.00;;;;;4.48;100.00;100489.50;6315705;20;3655431;-41
2021/10/20 04:42:53;;;;;;;;;67.33;52.33;;;;;4.37;100.00;100476.47;6311922;20;3637747;-38
2021/10/20 04:45:23;;;;;;;;;76.33;57.33;;;;;4.25;100.00;100475.88;6314576;20;3647106;-41
2021/10/20 04:47:53;;;;;;;;;79.00;55.33;;;;;4.26;100.00;100488.25;6311802;20;3643967;-43
2021/10/20 04:50:22;;;;;;;;;73.00;56.00;;;;;3.90;100.00;100482.84;6315467;20;3625246;-41
2021/10/20 04:52:52;;;;;;;;;77.67;56.67;;;;;3.97;100.00;100487.97;6315232;20;3648149;-41
2021/10/20 04:55:22;;;;;;;;;74.33;53.00;;;;;3.90;100.00;100482.84;6314084;20;3636667;-41
2021/10/20 04:57:53;;;;;;;;;84.00;63.33;;;;;3.97;100.00;100471.16;6313364;20;3654413;-40
2021/10/20 05:00:24;;;;;;;;;85.67;64.67;;;;;4.23;100.00;100467.06;6313451;20;3628379;-41
2021/10/20 05:02:54;;;;;;;;;74.67;54.67;;;;;4.28;100.00;100459.84;6311385;20;3639915;-41
2021/10/20 05:05:29;;;;;;;;;74.67;56.00;;;;;4.50;100.00;100458.44;6316226;20;3640874;-41
2021/10/20 05:07:59;;;;;;;;;78.33;59.00;;;;;4.42;100.00;100462.19;6311664;20;3638845;-41
2021/10/20 05:10:29;;;;;;;;;74.00;57.67;;;;;4.32;100.00;100456.22;6315464;20;3629407;-42
2021/10/20 05:12:59;;;;;;;;;70.67;55.00;;;;;4.41;100.00;100458.66;6310213;20;3629441;-40
2021/10/20 05:15:29;;;;;;;;;97.33;77.33;;;;;4.54;100.00;100472.53;6312908;20;3666904;-42
2021/10/20 05:17:58;;;;;;;;;86.00;61.00;;;;;4.08;100.00;100468.25;6278752;20;3650364;-41
2021/10/20 05:20:28;;;;;;;;;78.00;57.67;;;;;4.06;100.00;100460.34;6314349;20;3636753;-41
2021/10/20 05:22:58;;;;;;;;;71.33;53.33;;;;;4.08;100.00;100447.00;6314082;20;3625255;-41
2021/10/20 05:25:27;;;;;;;;;69.33;51.00;;;;;4.33;100.00;100445.53;6313375;20;2876617;-41
2021/10/20 05:27:57;;;;;;;;;69.33;54.00;;;;;4.34;100.00;100443.75;6311738;20;3622245;-44
2021/10/20 05:30:27;;;;;;;;;70.67;56.00;;;;;4.43;100.00;100448.88;6313741;20;3622132;-41
2021/10/20 05:32:56;;;;;;;;;68.67;54.67;;;;;4.55;100.00;100427.25;6315533;20;3629421;-41
2021/10/20 05:35:27;;;;;;;;;77.00;58.67;;;;;4.43;100.00;100422.28;6311336;20;3640874;-41
2021/10/20 05:37:57;;;;;;;;;70.33;53.33;;;;;4.62;100.00;100435.97;6314100;20;3620030;-41
2021/10/20 05:40:27;;;;;;;;;74.67;58.67;;;;;4.96;100.00;100430.66;6313623;20;2876417;-42
2021/10/20 05:42:56;;;;;;;;;75.33;58.00;;;;;4.80;100.00;100434.66;6289073;20;3644023;-43
2021/10/20 05:45:25;;;;;;;;;63.50;52.50;;;;;4.89;100.00;100437.06;6312496;20;2850339;-42
2021/10/20 05:47:55;;;;;;;;;72.00;55.00;;;;;5.14;100.00;100441.75;6282294;20;3640901;-41
2021/10/20 05:50:24;;;;;;;;;80.33;58.33;;;;;5.12;100.00;100451.53;6314009;20;3646099;-42
2021/10/20 05:52:54;;;;;;;;;76.33;57.67;;;;;4.91;100.00;100453.84;6315446;20;3645114;-41
2021/10/20 05:55:24;;;;;;;;;69.67;54.33;;;;;4.92;100.00;100447.59;6312092;20;2879797;-41
2021/10/20 05:57:54;;;;;;;;;87.67;65.67;;;;;4.76;100.00;100447.13;6285283;20;3642945;-41
2021/10/20 06:00:23;;;;;;;;;93.00;70.00;;;;;4.93;100.00;100451.16;6312865;20;3664343;-41
2021/10/20 06:02:53;;;;;;;;;72.00;52.67;;;;;5.13;100.00;100453.28;6284489;20;2882794;-42
2021/10/20 06:05:22;;;;;;;;;69.00;55.33;;;;;4.92;100.00;100466.22;6313074;20;3635691;-43
2021/10/20 06:07:52;;;;;;;;;66.67;51.33;;;;;5.15;100.00;100457.66;6310741;20;2866030;-41
2021/10/20 06:10:22;;;;;;;;;72.00;56.00;;;;;5.26;100.00;100460.03;6314521;20;3638869;-41
2021/10/20 06:12:52;;;;;;;;;75.67;57.00;;;;;5.44;100.00;100471.97;6311804;20;3637754;-43
2021/10/20 06:15:23;;;;;;;;;80.00;58.33;;;;;5.47;100.00;100470.06;6309310;20;3651251;-42
2021/10/20 06:18:05;;;;;;;;;74.33;59.00;;;;;5.52;100.00;100472.63;6312300;20;3627328;-41
2021/10/20 06:20:35;;;;;;;;;73.67;56.67;;;;;5.66;100.00;100466.88;6313938;20;3626259;-42
2021/10/20 06:23:04;;;;;;;;;80.67;60.67;;;;;5.80;100.00;100470.03;6309353;20;3636799;-42
2021/10/20 06:25:34;;;;;;;;;76.33;58.33;;;;;5.92;100.00;100480.34;6312922;20;2883661;-41
2021/10/20 06:28:04;;;;;;;;;79.33;59.67;;;;;6.13;100.00;100480.63;6312970;20;3647118;-42
2021/10/20 06:30:33;;;;;;;;;82.00;56.67;;;;;6.27;100.00;100469.56;6280698;20;3653373;-42
2021/10/20 06:33:03;;;;;;;;;77.00;59.00;;;;;6.24;100.00;100480.28;6312510;20;3636665;-41
2021/10/20 06:35:33;;;;;;;;;80.67;59.33;;;;;6.36;100.00;100487.94;6310468;20;3653342;-41
2021/10/20 06:38:03;;;;;;;;;81.00;60.00;;;;;6.20;100.00;100495.53;6279854;20;3646072;-41
2021/10/20 06:40:33;;;;;;;;;82.00;56.33;;;;;6.19;100.00;100479.56;6279463;20;3665841;-42
2021/10/20 06:43:02;;;;;;;;;86.33;64.33;;;;;6.42;100.00;100485.06;6312904;20;3649604;-42
2021/10/20 06:45:34;;;;;;;;;75.67;54.00;;;;;6.31;100.00;100482.72;6311249;20;3648146;-42
2021/10/20 06:48:06;;;;;;;;;100.50;82.75;;;;;6.66;100.00;100483.41;6311948;20;3680944;-41
2021/10/20 06:50:37;;;;;;;;;340.25;258.75;;;;;6.76;100.00;100489.31;6279134;20;4509647;-42
2021/10/20 06:53:07;;;;;;;;;202.50;153.75;;;;;6.99;100.00;100485.88;6280726;20;3715871;-43
2021/10/20 06:55:37;;;;;;;;;73.67;58.33;;;;;6.89;100.00;100490.63;6274506;20;3630604;-42
2021/10/20 06:58:11;;;;;;;;;71.67;54.33;;;;;6.76;100.00;100484.84;6310694;20;3630819;-41
2021/10/20 07:00:41;;;;;;;;;76.00;58.00;;;;;7.11;100.00;100496.16;6312745;20;3624207;-43
2021/10/20 07:03:10;;;;;;;;;74.33;56.33;;;;;7.33;100.00;100495.41;6311625;20;3645040;-42
2021/10/20 07:05:40;;;;;;;;;68.33;53.00;;;;;7.16;100.00;100494.19;6312567;20;3612756;-41
2021/10/20 07:08:10;;;;;;;;;77.67;56.33;;;;;7.33;100.00;100480.25;6309397;20;3642935;-42
2021/10/20 07:10:40;;;;;;;;;75.67;59.00;;;;;7.53;100.00;100481.31;6312151;20;3622094;-41
2021/10/20 07:13:10;;;;;;;;;76.67;59.67;;;;;7.86;100.00;100479.19;6310561;20;3622244;-42
2021/10/20 07:15:40;;;;;;;;;74.00;57.67;;;;;7.81;100.00;100479.38;6310643;20;3617967;-42
2021/10/20 07:18:08;;;;;;;;;74.00;57.00;;;;;8.17;98.50;100478.03;6313461;20;3620106;-42
2021/10/20 07:20:38;;;;;;;;;77.00;61.00;;;;;8.23;97.73;100480.47;6280276;20;2866057;-43
2021/10/20 07:23:07;;;;;;;;;73.33;57.33;;;;;7.94;97.93;100486.94;6310060;20;3631537;-42
2021/10/20 07:25:37;;;;;;;;;75.67;59.67;;;;;8.42;98.10;100483.31;6310063;20;2851906;-42
2021/10/20 07:28:09;;;;;;;;;75.00;57.33;;;;;8.18;97.21;100469.94;6310762;20;3631569;-42
2021/10/20 07:30:39;;;;;;;;;76.33;57.33;;;;;8.19;96.96;100469.03;6311005;20;3622133;-44
2021/10/20 07:33:08;;;;;;;;;73.67;57.67;;;;;8.25;96.24;100468.78;6314819;20;3613794;-43
2021/10/20 07:35:38;;;;;;;;;78.00;59.67;;;;;8.53;96.86;100470.34;6278985;20;3622123;-43
2021/10/20 07:38:07;;;;;;;;;76.00;60.00;;;;;8.62;95.82;100474.50;6310674;20;3604537;-43
2021/10/20 07:40:37;;;;;;;;;66.33;53.33;;;;;8.69;94.83;100471.50;6308039;20;3623222;-43
2021/10/20 07:43:06;;;;;;;;;75.00;57.00;;;;;8.79;94.28;100471.97;6311932;20;3632556;-43
2021/10/20 07:45:36;;;;;;;;;75.33;54.33;;;;;8.82;94.38;100470.97;6277389;20;3651401;-43
2021/10/20 07:48:06;;;;;;;;;75.67;57.33;;;;;8.68;93.68;100463.53;6277791;20;3623193;-42
2021/10/20 07:50:35;;;;;;;;;76.33;57.67;;;;;8.73;93.94;100470.44;6313665;20;3628344;-43
2021/10/20 07:53:04;;;;;;;;;69.67;54.00;;;;;8.87;94.04;100469.84;6277679;20;3620044;-44
2021/10/20 07:55:33;;;;;;;;;22.33;21.67;;;;;8.84;94.27;100459.25;6310595;20;3583548;-43
2021/10/20 07:58:02;;;;;;;;;64.00;54.50;;;;;8.84;94.60;100455.72;6274877;20;2855565;-43
2021/10/20 08:00:31;;;;;;;;;69.00;53.00;;;;;9.26;93.68;100466.41;6279372;20;2766919;-42
2021/10/20 08:03:02;;;;;;;;;71.00;54.67;;;;;9.43;92.48;100468.34;6278842;20;3631508;-42
2021/10/20 08:05:32;;;;;;;;;74.67;57.67;;;;;9.51;93.43;100460.84;6280249;20;3624702;-43
2021/10/20 08:08:02;;;;;;;;;66.67;52.67;;;;;9.43;91.62;100455.81;6313488;20;3629380;-43
2021/10/20 08:10:32;;;;;;;;;69.00;55.67;;;;;10.00;89.84;100458.56;6318196;20;3627313;-43
2021/10/20 08:13:00;;;;;;;;;70.67;54.67;;;;;10.09;88.86;100459.97;6316887;20;3630443;-43
2021/10/20 08:15:30;;;;;;;;;71.00;54.00;;;;;10.88;87.47;100454.38;6287214;20;3634631;-44
2021/10/20 08:18:03;;;;;;;;;66.67;52.00;;;;;11.37;85.32;100458.09;6315819;20;3632512;-44
2021/10/20 08:20:34;;;;;;;;;67.33;51.67;;;;;11.40;84.52;100457.03;6320074;20;3633546;-43
2021/10/20 08:23:06;;;;;;;;;70.50;53.50;;;;;11.42;84.48;100457.84;6319837;20;3636802;-44
2021/10/20 08:25:36;;;;;;;;;71.25;53.50;;;;;11.56;83.81;100459.81;6322223;20;3631534;-43
2021/10/20 08:28:07;;;;;;;;;74.67;54.33;;;;;11.74;83.08;100463.31;6318287;20;3643090;-43
2021/10/20 08:30:37;;;;;;;;;64.00;51.00;;;;;11.83;82.70;100452.94;6246613;20;3614917;-44
2021/10/20 08:33:06;;;;;;;;;65.00;52.00;;;;;11.88;82.12;100454.56;6321630;20;3616228;-46
2021/10/20 08:35:37;;;;;;;;;69.67;52.00;;;;;11.93;81.00;100452.44;6237212;20;3622138;-43
2021/10/20 08:38:07;;;;;;;;;72.25;56.25;;;;;12.31;80.40;100450.34;6288249;20;3632702;-43
2021/10/20 08:40:45;;;;;;;;;62.00;51.00;;;;;12.24;79.99;100441.75;6322333;20;3616893;-42
2021/10/20 08:43:19;;;;;;;;;64.00;50.33;;;;;12.47;78.11;100453.03;6287874;20;3631461;-43
2021/10/20 08:45:49;;;;;;;;;61.67;50.00;;;;;13.16;77.63;100443.56;6320885;20;3616934;-43
2021/10/20 08:48:21;;;;;;;;;62.50;47.25;;;;;13.00;76.04;100450.84;6288466;20;3639868;-45
2021/10/20 08:51:02;;;;;;;;;60.33;49.00;;;;;13.33;75.38;100442.59;6322732;20;3610655;-43
2021/10/20 08:53:32;;;;;;;;;57.33;47.33;;;;;13.32;74.56;100444.44;6287111;20;3610638;-43
2021/10/20 08:56:00;;;;;;;;;56.50;47.00;;;;;12.92;75.49;100444.06;6323057;20;2685677;-44
2021/10/20 08:58:29;;;;;;;;;57.00;47.00;;;;;12.77;76.18;100428.84;6286172;20;3613838;-43
2021/10/20 09:00:59;;;;;;;;;67.00;48.75;;;;;12.96;76.26;100434.88;6319849;20;4406525;-44
2021/10/20 09:03:28;;;;;;;;;64.00;49.67;;;;;13.09;75.80;100426.06;6320633;20;3630577;-45
2021/10/20 09:05:58;;;;;;;;;57.00;46.67;;;;;13.54;75.52;100429.63;6285340;20;3595050;-43
2021/10/20 09:08:38;;;;;;;;;59.67;49.33;;;;;13.76;73.39;100435.41;6319200;20;3622143;-43
2021/10/20 09:11:35;;;;;;;;;61.00;49.67;;;;;13.36;72.39;100426.22;6286922;20;3601309;-44
2021/10/20 09:14:06;;;;;;;;;63.00;49.33;;;;;13.55;72.05;100434.06;6318919;20;3627413;-43
2021/10/20 09:16:38;;;;;;;;;56.33;45.67;;;;;13.72;71.22;100430.31;6320661;20;3619038;-43
2021/10/20 09:19:14;;;;;;;;;54.50;44.50;;;;;14.32;69.96;100431.88;6283726;20;2850285;-44
2021/10/20 09:21:59;;;;;;;;;56.00;45.00;;;;;14.35;69.68;100420.84;6287522;20;3620017;-43
2021/10/20 09:24:38;;;;;;;;;50.33;42.00;;;;;14.60;68.84;100430.97;6320186;20;3583589;-43
2021/10/20 09:27:29;;;;;;;;;53.00;44.00;;;;;14.94;66.52;100434.97;6282442;20;3598293;-43
2021/10/20 09:30:13;;;;;;;;;53.33;43.00;;;;;14.93;67.00;100431.41;6319995;20;3606563;-43
2021/10/20 09:32:44;;;;;;;;;52.33;43.67;;;;;14.99;67.75;100422.00;6287091;20;2858735;-44
2021/10/20 09:35:13;;;;;;;;;52.00;42.00;;;;;15.13;66.11;100419.22;6317740;20;3596075;-45
2021/10/20 09:37:46;;;;;;;;;50.33;42.33;;;;;15.47;65.62;100421.44;6285613;20;2851345;-44
2021/10/20 09:40:15;;;;;;;;;53.33;42.00;;;;;15.49;68.00;100425.75;6320310;20;3600222;-43
2021/10/20 09:42:51;;;;;;;;;53.00;44.00;;;;;15.29;67.08;100410.91;6285773;20;2752310;-45
2021/10/20 09:45:23;;;;;;;;;59.67;46.67;;;;;14.57;68.04;100413.13;6287386;20;3615851;-45
2021/10/20 09:47:52;;;;;;;;;59.67;47.33;;;;;14.35;69.65;100420.84;6289620;20;3614900;-46
2021/10/20 09:50:57;;;;;;;;;60.00;47.00;;;;;14.15;71.67;100414.94;6233462;20;3623138;-44
2021/10/20 09:53:43;;;;;;;;;61.50;47.75;;;;;14.15;71.86;100412.22;6320002;20;3630461;-44
2021/10/20 09:56:34;;;;;;;;;56.00;45.67;;;;;13.91;72.59;100411.97;6317999;20;3601258;-45
2021/10/20 09:59:08;;;;;;;;;58.00;47.00;;;;;13.86;71.70;100407.84;6283840;20;3616936;-44
2021/10/20 10:01:37;;;;;;;;;58.00;47.33;;;;;14.01;72.17;100401.47;6319974;20;3614817;-45
2021/10/20 10:04:07;;;;;;;;;60.00;48.67;;;;;14.19;71.79;100394.88;6286628;20;3627323;-45
2021/10/20 10:06:43;;;;;;;;;56.33;47.00;;;;;14.76;69.26;100392.97;6285927;20;3608557;-44
2021/10/20 10:09:27;;;;;;;;;55.33;46.67;;;;;15.05;67.67;100399.94;6283642;20;2855578;-44
2021/10/20 10:12:05;;;;;;;;;59.67;47.00;;;;;15.17;66.76;100394.69;6320246;20;3626252;-44
2021/10/20 10:14:48;;;;;;;;;56.00;46.00;;;;;15.26;66.83;100391.31;6285134;20;3612726;-46
2021/10/20 10:17:19;;;;;;;;;63.50;49.50;;;;;15.43;67.39;100382.91;6287112;20;3616965;-44
2021/10/20 10:19:49;;;;;;;;;54.00;45.00;;;;;15.49;66.40;100382.47;6316476;20;3587861;-43
2021/10/20 10:22:26;;;;;;;;;58.00;47.00;;;;;15.88;65.29;100372.47;6282314;20;2867086;-43
2021/10/20 10:25:06;;;;;;;;;57.33;46.00;;;;;15.57;65.85;100366.53;6316130;20;3621125;-44
2021/10/20 10:27:35;;;;;;;;;55.67;45.33;;;;;15.66;64.95;100356.00;6288005;20;3617942;-43
2021/10/20 10:31:02;;;;;;;;;60.00;46.00;;;;;16.09;63.18;100352.91;6287019;20;3634590;-43
2021/10/20 10:33:33;;;;;;;;;51.67;43.00;;;;;15.72;63.41;100350.22;6317125;20;3612106;-46
2021/10/20 10:36:20;;;;;;;;;54.00;45.00;;;;;16.28;62.25;100345.16;6285935;20;2856592;-43
2021/10/20 10:39:09;;;;;;;;;51.67;42.67;;;;;16.49;62.26;100337.25;6316750;20;3603394;-43
2021/10/20 10:41:48;;;;;;;;;49.33;41.00;;;;;16.46;60.92;100338.34;6289630;20;3579456;-44
2021/10/20 10:44:24;;;;;;;;;43.00;37.00;;;;;16.72;60.32;100340.94;6283250;20;3620060;-43
2021/10/20 10:47:26;;;;;;;;;58.67;48.00;;;;;16.63;60.42;100341.63;6318135;20;3624206;-44
2021/10/20 10:49:57;;;;;;;;;48.33;40.00;;;;;16.86;61.77;100334.47;6284899;20;3580448;-43
2021/10/20 10:52:37;;;;;;;;;57.00;45.33;;;;;16.59;61.79;100318.44;6283679;20;3611691;-45
2021/10/20 10:55:22;;;;;;;;;50.33;42.33;;;;;16.65;61.00;100316.13;6317363;20;3609672;-43
2021/10/20 10:58:03;;;;;;;;;54.33;43.33;;;;;16.53;59.92;100305.34;6283751;20;3596134;-42
2021/10/20 11:00:47;;;;;;;;;71.00;55.00;;;;;16.98;60.65;100308.22;6285197;20;3615864;-44
2021/10/20 11:03:26;;;;;;;;;46.67;37.00;;;;;16.96;57.00;100299.38;6319049;20;3605420;-43
2021/10/20 11:06:00;;;;;;;;;36.33;31.67;;;;;17.04;57.06;100289.63;6286492;20;3601268;-43
2021/10/20 11:08:30;;;;;;;;;31.00;30.00;;;;;16.97;56.27;100291.09;6287148;20;3581686;-45
2021/10/20 11:10:59;;;;;;;;;32.33;31.00;;;;;17.09;55.88;100278.41;6286166;20;3602743;-43
2021/10/20 11:13:27;;;;;;;;;42.00;36.33;;;;;17.25;56.42;100278.06;6287054;20;3608614;-45
2021/10/20 11:15:56;;;;;;;;;40.67;34.33;;;;;16.87;56.53;100268.38;6286845;20;3591873;-46